Airfield :
LOGIN :

Register | Disclaimer

   EN    FR    IT 

 










Legend :    VFR   Marginal VFR   IFR   Intensive IFR   Very Intensive IFR
Visi :
Ceiling :
>= 8 km
>= 3000ft
5 to 8 km
1000 to 3000 ft
1500m to 5 km
500 to 1000 ft
800 to 1500m
200 to 500 ft
< 800m
< 200 ft
Symbols :   Thunderstorms  Fog  Heavy snow  Heavy precipitations  Wind > 20 kt
SIGMETs :     Misc.  Thunderstorms  Icing  Turbulence  Mountain Waves  Volcanic Ashes






- Airport Elevation : 75 ft
- IATA code : YEO


EGDY - RNAS Yeovilton

CURRENT METAR :
  • 311820Z 26007KT 9999 FEW014 BKN050 18/13 Q1010 TEMPO 9999 SCT022 RMK BLU TEMPO WHT

EXPIRED METARs :
  • 311750Z 26007KT 9999 FEW014 BKN050 18/13 Q1010 TEMPO 9999 SCT022 RMK BLU TEMPO WHT
  • 311720Z 27008KT 9999 FEW014 BKN050 18/14 Q1010 TEMPO 9999 SCT022 RMK BLU TEMPO WHT
  • 311650Z 27008KT 9999 FEW014 BKN045 18/13 Q1010 TEMPO 9999 SCT022 RMK BLU TEMPO WHT
  • 311620Z 27008KT 9999 FEW014 BKN045 17/14 Q1011 TEMPO 9999 SCT022 RMK BLU TEMPO WHT
  • 311550Z AUTO 31005KT 9999 -RA SCT021/// SCT027/// BKN034/// 16/15 Q1011

Expired Forecast.



MET'MAP, your aeronautical weather chart ! - Copyright ORBIFLY December 2007 - Disclaimer

ORBIFLY MET'MAP TEAM :

Programming & Development : Alexandra Zaïnal
Concept & original design : Baudouin d'Aumeries
Assistance for programming : Marc-Olivier Méhu
Technical & hardware support : Manuel Goepfert

Contact : metmap@orbifly.com




SOURCES & CREDITS :

   NOAA